EBBR Airport Information

Runway Information
Runway 01 Length 9800 ft width 164 ft
Elevation 183 ft Threshold 151 ft Heading 14
Runway 19 Length 9800 ft Width 164 ft
Elevation 113 ft Threshold 571 ft Heading 194
Runway 07L Length 11936 ft width 148 ft
Elevation 129 ft Threshold 846 ft Heading 65
Runway 25R Length 11936 ft Width 148 ft
Elevation 110 ft Threshold 984 ft Heading 245
Runway 07R Length 10535 ft width 148 ft
Elevation 175 ft Threshold 400 ft Heading 70
Runway 25L Length 10535 ft Width 148 ft
Elevation 159 ft Threshold 0 ft Heading 250
Airport Frequencies
Type APP Name APP Frequency 118.25 MHZ
Type ATIS Name ATIS DEP Frequency 121.75 MHZ
Type ATIS Name ATIS ARR Frequency 132.475 MHZ
Type CLD Name CLNC DEL Frequency 121.95 MHZ
Type DEP Name DEP Frequency 126.625 MHZ
Type GND Name GND North Frequency 118.05 MHZ
Type GND Name GND South Frequency 121.875 MHZ
Type OPS Name MELSBROEK Frequency 140.575 MHZ
Type TWR Name TWR (RWY 0 Frequency 118.6 MHZ
Type TWR Name TWR (RWY 0 Frequency 120.775 MHZ
Type UNIC Name ABELAG UNI Frequency 130.55 MHZ
Airport Navaids
Type VOR-DME Name Affligem Frequency 114900 KHZ
Type VOR-DME Name Brussels Frequency 114600 KHZ
Type VOR-DME Name Bruno Frequency 110600 KHZ
Type NDB Name Brussels Frequency 293 KHZ
Type NDB Name Brussels Frequency 314 KHZ
Airport Weather Information & NOTAM
ADDS - METARS form results

(0328 UTC 13 June 2021)
Data provider http://aviationweather.gov/metar/data/
 
METAR text: EBBR 130320Z VRB01KT CAVOK 11/09 Q1027 NOSIG
Conditions at: EBBR (BRUSSELS NATIONA, BE) observed 0320 UTC 13 June 2021
Temperature: 11.0°C (52°F)
Dewpoint: 9.0°C (48°F) [RH = 87%]
Pressure (altimeter): 30.32 inches Hg (1027.0 mb)
Winds: variable direction winds at 1 MPH (1 knots; 0.5 m/s)
Visibility: 6 or more miles (10+ km)
Ceiling: ceiling and visibility are OK
Clouds: unknown
Weather: no significant weather observed at this time

METAR text: EBBR 130250Z 01001KT CAVOK 11/07 Q1027 NOSIG
Conditions at: EBBR (BRUSSELS NATIONA, BE) observed 0250 UTC 13 June 2021
Temperature: 11.0°C (52°F)
Dewpoint: 7.0°C (45°F) [RH = 76%]
Pressure (altimeter): 30.32 inches Hg (1027.0 mb)
Winds: from the N (10 degrees) at 1 MPH (1 knots; 0.5 m/s)
Visibility: 6 or more miles (10+ km)
Ceiling: ceiling and visibility are OK
Clouds: unknown
Weather: no significant weather observed at this time

Forecast for: EBBR (BRUSSELS NATIONA, BE)
Text: TAF EBBR 122304Z 1300/1406 01006KT 9999 FEW045
Forecast period: 0000 UTC 13 June 2021 to 0600 UTC 14 June 2021
Forecast type: FROM: standard forecast or significant change
Winds: from the N (10 degrees) at 7 MPH (6 knots; 3.1 m/s)
Visibility: 6 or more miles (10+ km)
Ceiling: at least 12,000 feet AGL
Clouds: few clouds at 4500 feet AGL
Weather: no significant weather forecast for this period